GLO1941 SBPL-SBSV
Flight info
| Callsign | GLO1941 |
|---|---|
| Flight time | 0h 48m |
| Altitude | 31000 |
| Route | DCT EDMUP DCT DORMU |
| Aircraft | B738/M-SDFGIKLORWX/LB1 |
Departure
| Time | 2026-04-30 11:48 |
|---|---|
| Airport | Senador Nilo Coelho Airport (SBPL) |
Arrival
| Time | 2026-04-30 12:37 |
|---|---|
| Airport | Deputado Luiz Eduardo Magalhães International Airport (SBSV) |
| Time | Latitude | Longitude | Altitude | Speed | Heading |
|---|---|---|---|---|---|
| 2026-04-30 11:36 | -9.36588 | -40.56556 | 1268 ft | 0 kts | 199° |
| 2026-04-30 11:41 | -9.36582 | -40.56554 | 1268 ft | 4 kts | 202° |
| 2026-04-30 11:41 | -9.36561 | -40.56539 | 1268 ft | 4 kts | 244° |
| 2026-04-30 11:41 | -9.36558 | -40.56516 | 1268 ft | 2 kts | 288° |
| 2026-04-30 11:42 | -9.36558 | -40.56514 | 1268 ft | 1 kts | 289° |
| 2026-04-30 11:44 | -9.36558 | -40.56515 | 1268 ft | 0 kts | 289° |
| 2026-04-30 11:45 | -9.36552 | -40.56532 | 1268 ft | 6 kts | 289° |
| 2026-04-30 11:45 | -9.36524 | -40.56582 | 1268 ft | 9 kts | 331° |
| 2026-04-30 11:45 | -9.36460 | -40.56573 | 1269 ft | 9 kts | 15° |
| 2026-04-30 11:45 | -9.36399 | -40.56558 | 1269 ft | 9 kts | 6° |
| 2026-04-30 11:46 | -9.36351 | -40.56615 | 1270 ft | 15 kts | 287° |
| 2026-04-30 11:46 | -9.36312 | -40.56735 | 1271 ft | 21 kts | 288° |
| 2026-04-30 11:46 | -9.36255 | -40.56895 | 1270 ft | 26 kts | 290° |
| 2026-04-30 11:46 | -9.36195 | -40.57064 | 1270 ft | 25 kts | 290° |
| 2026-04-30 11:47 | -9.36145 | -40.57220 | 1277 ft | 22 kts | 278° |
| 2026-04-30 11:47 | -9.36156 | -40.57310 | 1271 ft | 10 kts | 298° |
| 2026-04-30 11:47 | -9.36116 | -40.57298 | 1272 ft | 6 kts | 88° |
| 2026-04-30 11:47 | -9.36118 | -40.57292 | 1268 ft | 0 kts | 110° |
| 2026-04-30 11:48 | -9.36134 | -40.57249 | 1274 ft | 34 kts | 109° |
| 2026-04-30 11:48 | -9.36310 | -40.56736 | 1272 ft | 118 kts | 109° |
| 2026-04-30 11:48 | -9.36673 | -40.55741 | 1343 ft | 181 kts | 111° |
| 2026-04-30 11:48 | -9.37138 | -40.54509 | 2211 ft | 193 kts | 112° |
| 2026-04-30 11:49 | -9.37622 | -40.53204 | 3066 ft | 206 kts | 110° |
| 2026-04-30 11:49 | -9.38098 | -40.51740 | 3373 ft | 230 kts | 110° |
| 2026-04-30 11:49 | -9.38959 | -40.50338 | 3711 ft | 248 kts | 142° |
| 2026-04-30 11:49 | -9.40600 | -40.49734 | 4351 ft | 260 kts | 176° |
| 2026-04-30 11:50 | -9.42416 | -40.49775 | 5289 ft | 262 kts | 180° |
| 2026-04-30 11:50 | -9.44254 | -40.49856 | 6187 ft | 265 kts | 179° |
| 2026-04-30 11:50 | -9.46102 | -40.49930 | 7040 ft | 268 kts | 178° |
| 2026-04-30 11:50 | -9.47990 | -40.49993 | 7808 ft | 274 kts | 178° |
| 2026-04-30 11:51 | -9.49913 | -40.50046 | 8573 ft | 279 kts | 178° |
| 2026-04-30 11:51 | -9.51870 | -40.50093 | 9352 ft | 283 kts | 177° |
| 2026-04-30 11:51 | -9.53858 | -40.50134 | 10084 ft | 288 kts | 178° |
| 2026-04-30 11:51 | -9.55912 | -40.50173 | 10495 ft | 306 kts | 178° |
| 2026-04-30 11:52 | -9.58125 | -40.50211 | 10728 ft | 327 kts | 178° |
| 2026-04-30 11:52 | -9.60428 | -40.50254 | 11287 ft | 335 kts | 179° |
| 2026-04-30 11:52 | -9.62774 | -40.50297 | 11943 ft | 339 kts | 179° |
| 2026-04-30 11:52 | -9.65153 | -40.50339 | 12590 ft | 344 kts | 179° |
| 2026-04-30 11:53 | -9.67561 | -40.50374 | 13219 ft | 348 kts | 177° |
| 2026-04-30 11:53 | -9.69971 | -40.50113 | 13827 ft | 349 kts | 165° |
| 2026-04-30 11:53 | -9.72310 | -40.49535 | 14454 ft | 352 kts | 163° |
| 2026-04-30 11:53 | -9.74688 | -40.48899 | 15069 ft | 355 kts | 162° |
| 2026-04-30 11:54 | -9.77088 | -40.48245 | 15659 ft | 359 kts | 162° |
| 2026-04-30 11:54 | -9.79515 | -40.47586 | 16241 ft | 363 kts | 162° |
| 2026-04-30 11:54 | -9.81959 | -40.46929 | 16815 ft | 366 kts | 162° |
| 2026-04-30 11:54 | -9.84440 | -40.46267 | 17373 ft | 370 kts | 162° |
| 2026-04-30 11:55 | -9.86941 | -40.45605 | 17920 ft | 373 kts | 162° |
| 2026-04-30 11:55 | -9.89464 | -40.44940 | 18466 ft | 377 kts | 162° |
| 2026-04-30 11:55 | -9.92015 | -40.44269 | 18986 ft | 380 kts | 162° |
| 2026-04-30 11:55 | -9.94582 | -40.43595 | 19511 ft | 382 kts | 162° |
| 2026-04-30 11:56 | -9.97167 | -40.42917 | 20022 ft | 385 kts | 162° |
| 2026-04-30 11:56 | -9.99769 | -40.42235 | 20533 ft | 388 kts | 162° |
| 2026-04-30 11:56 | -10.02390 | -40.41547 | 21023 ft | 390 kts | 162° |
| 2026-04-30 11:56 | -10.05029 | -40.40855 | 21504 ft | 393 kts | 162° |
| 2026-04-30 11:57 | -10.07688 | -40.40158 | 21987 ft | 396 kts | 162° |
| 2026-04-30 11:57 | -10.10360 | -40.39457 | 22438 ft | 398 kts | 162° |
| 2026-04-30 11:57 | -10.13058 | -40.38749 | 22883 ft | 401 kts | 162° |
| 2026-04-30 11:57 | -10.15767 | -40.38038 | 23319 ft | 403 kts | 162° |
| 2026-04-30 11:58 | -10.18499 | -40.37321 | 23744 ft | 406 kts | 162° |
| 2026-04-30 11:58 | -10.21237 | -40.36603 | 24161 ft | 408 kts | 162° |
| 2026-04-30 11:58 | -10.23995 | -40.35878 | 24562 ft | 411 kts | 162° |
| 2026-04-30 11:58 | -10.26775 | -40.35148 | 24957 ft | 413 kts | 162° |
| 2026-04-30 11:59 | -10.29564 | -40.34416 | 25356 ft | 415 kts | 162° |
| 2026-04-30 11:59 | -10.32326 | -40.33690 | 25754 ft | 416 kts | 163° |
| 2026-04-30 11:59 | -10.35169 | -40.32943 | 26129 ft | 418 kts | 163° |
| 2026-04-30 11:59 | -10.37959 | -40.32210 | 26488 ft | 420 kts | 163° |
| 2026-04-30 12:00 | -10.40784 | -40.31467 | 26850 ft | 422 kts | 163° |
| 2026-04-30 12:00 | -10.43635 | -40.30718 | 27207 ft | 424 kts | 163° |
| 2026-04-30 12:00 | -10.46497 | -40.29965 | 27559 ft | 426 kts | 163° |
| 2026-04-30 12:00 | -10.49370 | -40.29209 | 27885 ft | 428 kts | 163° |
| 2026-04-30 12:01 | -10.52263 | -40.28448 | 28196 ft | 429 kts | 163° |
| 2026-04-30 12:01 | -10.55168 | -40.27684 | 28532 ft | 431 kts | 163° |
| 2026-04-30 12:01 | -10.58073 | -40.26920 | 28850 ft | 433 kts | 163° |
| 2026-04-30 12:01 | -10.60991 | -40.26152 | 29162 ft | 434 kts | 163° |
| 2026-04-30 12:02 | -10.63924 | -40.25379 | 29446 ft | 436 kts | 163° |
| 2026-04-30 12:02 | -10.66875 | -40.24602 | 29723 ft | 438 kts | 163° |
| 2026-04-30 12:02 | -10.69830 | -40.23824 | 30025 ft | 439 kts | 163° |
| 2026-04-30 12:02 | -10.72758 | -40.23053 | 30302 ft | 441 kts | 163° |
| 2026-04-30 12:03 | -10.75739 | -40.22267 | 30574 ft | 442 kts | 163° |
| 2026-04-30 12:03 | -10.81718 | -40.20691 | 31053 ft | 445 kts | 163° |
| 2026-04-30 12:04 | -10.87608 | -40.19140 | 31034 ft | 426 kts | 163° |
| 2026-04-30 12:04 | -10.93300 | -40.17640 | 31049 ft | 422 kts | 163° |
| 2026-04-30 12:05 | -10.98994 | -40.16135 | 31045 ft | 424 kts | 163° |
| 2026-04-30 12:05 | -11.04713 | -40.14624 | 31046 ft | 425 kts | 163° |
| 2026-04-30 12:06 | -11.10445 | -40.13110 | 31041 ft | 426 kts | 163° |
| 2026-04-30 12:06 | -11.16155 | -40.11602 | 31047 ft | 426 kts | 163° |
| 2026-04-30 12:07 | -11.21897 | -40.10084 | 31045 ft | 426 kts | 163° |
| 2026-04-30 12:07 | -11.27627 | -40.08569 | 31047 ft | 425 kts | 163° |
| 2026-04-30 12:08 | -11.33337 | -40.07058 | 31045 ft | 424 kts | 163° |
| 2026-04-30 12:08 | -11.39035 | -40.05550 | 31048 ft | 423 kts | 163° |
| 2026-04-30 12:09 | -11.44729 | -40.04042 | 31043 ft | 422 kts | 163° |
| 2026-04-30 12:09 | -11.50418 | -40.02535 | 31050 ft | 422 kts | 163° |
| 2026-04-30 12:10 | -11.56115 | -40.01025 | 31046 ft | 423 kts | 163° |
| 2026-04-30 12:10 | -11.61389 | -39.98687 | 31065 ft | 416 kts | 140° |
| 2026-04-30 12:11 | -11.65806 | -39.94849 | 31051 ft | 417 kts | 137° |
| 2026-04-30 12:11 | -11.70170 | -39.90935 | 31041 ft | 418 kts | 137° |
| 2026-04-30 12:12 | -11.73849 | -39.87672 | 31069 ft | 426 kts | 138° |
| 2026-04-30 12:12 | -11.78409 | -39.83664 | 31070 ft | 438 kts | 138° |
| 2026-04-30 12:12 | -11.80743 | -39.81621 | 30911 ft | 446 kts | 138° |
| 2026-04-30 12:13 | -11.83115 | -39.79545 | 30518 ft | 450 kts | 138° |
| 2026-04-30 12:13 | -11.85480 | -39.77477 | 30024 ft | 445 kts | 138° |
| 2026-04-30 12:13 | -11.87828 | -39.75424 | 29534 ft | 440 kts | 138° |
| 2026-04-30 12:13 | -11.90147 | -39.73395 | 29016 ft | 437 kts | 138° |
| 2026-04-30 12:14 | -11.92439 | -39.71388 | 28511 ft | 433 kts | 138° |
| 2026-04-30 12:14 | -11.94720 | -39.69390 | 27999 ft | 430 kts | 137° |
| 2026-04-30 12:14 | -11.96978 | -39.67412 | 27509 ft | 426 kts | 137° |
| 2026-04-30 12:14 | -11.99190 | -39.65473 | 27017 ft | 422 kts | 137° |
| 2026-04-30 12:15 | -12.01408 | -39.63528 | 26528 ft | 418 kts | 137° |
| 2026-04-30 12:15 | -12.03611 | -39.61597 | 26033 ft | 415 kts | 137° |
| 2026-04-30 12:15 | -12.05794 | -39.59682 | 25549 ft | 411 kts | 137° |
| 2026-04-30 12:15 | -12.07958 | -39.57783 | 25057 ft | 408 kts | 137° |
| 2026-04-30 12:16 | -12.10100 | -39.55904 | 24570 ft | 405 kts | 137° |
| 2026-04-30 12:16 | -12.12230 | -39.54034 | 24098 ft | 401 kts | 137° |
| 2026-04-30 12:16 | -12.14338 | -39.52183 | 23622 ft | 398 kts | 136° |
| 2026-04-30 12:16 | -12.16433 | -39.50344 | 23147 ft | 395 kts | 136° |
| 2026-04-30 12:17 | -12.20549 | -39.46728 | 22212 ft | 390 kts | 136° |
| 2026-04-30 12:17 | -12.22595 | -39.44930 | 21751 ft | 387 kts | 136° |
| 2026-04-30 12:17 | -12.24630 | -39.43142 | 21291 ft | 384 kts | 136° |
| 2026-04-30 12:18 | -12.26649 | -39.41367 | 20834 ft | 381 kts | 136° |
| 2026-04-30 12:18 | -12.28654 | -39.39604 | 20365 ft | 379 kts | 137° |
| 2026-04-30 12:18 | -12.30642 | -39.37855 | 19925 ft | 376 kts | 136° |
| 2026-04-30 12:18 | -12.32619 | -39.36116 | 19475 ft | 374 kts | 137° |
| 2026-04-30 12:19 | -12.34590 | -39.34382 | 19026 ft | 371 kts | 137° |
| 2026-04-30 12:19 | -12.36539 | -39.32666 | 18580 ft | 369 kts | 136° |
| 2026-04-30 12:19 | -12.38480 | -39.30957 | 18143 ft | 367 kts | 137° |
| 2026-04-30 12:19 | -12.40409 | -39.29258 | 17697 ft | 365 kts | 137° |
| 2026-04-30 12:20 | -12.42327 | -39.27570 | 17258 ft | 363 kts | 137° |
| 2026-04-30 12:20 | -12.44238 | -39.25891 | 16766 ft | 362 kts | 137° |
| 2026-04-30 12:20 | -12.46153 | -39.24221 | 16288 ft | 361 kts | 137° |
| 2026-04-30 12:20 | -12.48063 | -39.22559 | 15843 ft | 359 kts | 137° |
| 2026-04-30 12:21 | -12.49959 | -39.20910 | 15417 ft | 357 kts | 137° |
| 2026-04-30 12:21 | -12.51844 | -39.19270 | 14977 ft | 355 kts | 137° |
| 2026-04-30 12:21 | -12.53720 | -39.17636 | 14561 ft | 352 kts | 137° |
| 2026-04-30 12:21 | -12.55580 | -39.16014 | 14135 ft | 350 kts | 137° |
| 2026-04-30 12:22 | -12.57427 | -39.14403 | 13718 ft | 348 kts | 137° |
| 2026-04-30 12:22 | -12.59263 | -39.12802 | 13308 ft | 345 kts | 138° |
| 2026-04-30 12:22 | -12.61085 | -39.11212 | 12881 ft | 343 kts | 138° |
| 2026-04-30 12:22 | -12.62873 | -39.09650 | 12473 ft | 341 kts | 138° |
| 2026-04-30 12:23 | -12.64672 | -39.08078 | 12071 ft | 338 kts | 138° |
| 2026-04-30 12:23 | -12.66459 | -39.06518 | 11660 ft | 336 kts | 138° |
| 2026-04-30 12:23 | -12.68232 | -39.04970 | 11263 ft | 334 kts | 138° |
| 2026-04-30 12:23 | -12.69997 | -39.03428 | 10850 ft | 332 kts | 138° |
| 2026-04-30 12:24 | -12.71735 | -39.01911 | 10648 ft | 324 kts | 138° |
| 2026-04-30 12:24 | -12.73424 | -39.00435 | 10509 ft | 314 kts | 138° |
| 2026-04-30 12:24 | -12.75062 | -38.99000 | 10364 ft | 305 kts | 137° |
| 2026-04-30 12:24 | -12.76651 | -38.97609 | 10239 ft | 296 kts | 137° |
| 2026-04-30 12:25 | -12.78198 | -38.96253 | 10113 ft | 288 kts | 137° |
| 2026-04-30 12:25 | -12.79696 | -38.94939 | 9938 ft | 281 kts | 137° |
| 2026-04-30 12:25 | -12.81181 | -38.93636 | 9643 ft | 280 kts | 137° |
| 2026-04-30 12:25 | -12.82652 | -38.92345 | 9359 ft | 278 kts | 137° |
| 2026-04-30 12:26 | -12.84102 | -38.91074 | 9075 ft | 277 kts | 137° |
| 2026-04-30 12:26 | -12.85561 | -38.89794 | 8798 ft | 274 kts | 136° |
| 2026-04-30 12:26 | -12.86745 | -38.88302 | 8492 ft | 270 kts | 115° |
| 2026-04-30 12:26 | -12.87450 | -38.86538 | 8231 ft | 267 kts | 109° |
| 2026-04-30 12:27 | -12.88066 | -38.84746 | 7943 ft | 265 kts | 108° |
| 2026-04-30 12:27 | -12.88667 | -38.82966 | 7663 ft | 264 kts | 108° |
| 2026-04-30 12:27 | -12.89268 | -38.81192 | 7368 ft | 263 kts | 109° |
| 2026-04-30 12:27 | -12.89872 | -38.79424 | 7079 ft | 262 kts | 109° |
| 2026-04-30 12:28 | -12.90477 | -38.77666 | 6787 ft | 261 kts | 109° |
| 2026-04-30 12:28 | -12.91083 | -38.75914 | 6504 ft | 260 kts | 109° |
| 2026-04-30 12:28 | -12.91685 | -38.74175 | 6217 ft | 259 kts | 109° |
| 2026-04-30 12:28 | -12.92287 | -38.72441 | 5929 ft | 257 kts | 109° |
| 2026-04-30 12:29 | -12.92887 | -38.70715 | 5656 ft | 256 kts | 109° |
| 2026-04-30 12:29 | -12.93003 | -38.70381 | 5611 ft | 256 kts | 109° |
| 2026-04-30 12:29 | -12.93586 | -38.68704 | 5341 ft | 254 kts | 109° |
| 2026-04-30 12:29 | -12.94175 | -38.67010 | 5152 ft | 247 kts | 109° |
| 2026-04-30 12:30 | -12.94736 | -38.65399 | 5073 ft | 233 kts | 109° |
| 2026-04-30 12:30 | -12.95265 | -38.63876 | 4971 ft | 221 kts | 109° |
| 2026-04-30 12:30 | -12.95766 | -38.62435 | 4869 ft | 209 kts | 109° |
| 2026-04-30 12:30 | -12.96208 | -38.61074 | 4703 ft | 200 kts | 100° |
| 2026-04-30 12:31 | -12.96175 | -38.59661 | 4418 ft | 198 kts | 85° |
| 2026-04-30 12:31 | -12.96005 | -38.58261 | 4100 ft | 198 kts | 83° |
| 2026-04-30 12:31 | -12.95775 | -38.56872 | 3781 ft | 198 kts | 81° |
| 2026-04-30 12:31 | -12.95517 | -38.55515 | 3622 ft | 188 kts | 81° |
| 2026-04-30 12:32 | -12.95265 | -38.54243 | 3487 ft | 178 kts | 80° |
| 2026-04-30 12:32 | -12.95019 | -38.53015 | 3236 ft | 175 kts | 81° |
| 2026-04-30 12:32 | -12.94776 | -38.51801 | 2970 ft | 172 kts | 81° |
| 2026-04-30 12:32 | -12.94537 | -38.50612 | 2786 ft | 169 kts | 81° |
| 2026-04-30 12:33 | -12.94299 | -38.49426 | 2640 ft | 171 kts | 81° |
| 2026-04-30 12:33 | -12.94057 | -38.48219 | 2490 ft | 173 kts | 81° |
| 2026-04-30 12:33 | -12.93821 | -38.47048 | 2352 ft | 166 kts | 81° |
| 2026-04-30 12:33 | -12.93597 | -38.45938 | 2198 ft | 155 kts | 81° |
| 2026-04-30 12:34 | -12.93380 | -38.44849 | 2074 ft | 157 kts | 81° |
| 2026-04-30 12:34 | -12.93161 | -38.43760 | 1999 ft | 155 kts | 81° |
| 2026-04-30 12:34 | -12.92942 | -38.42668 | 1836 ft | 156 kts | 81° |
| 2026-04-30 12:34 | -12.92724 | -38.41577 | 1634 ft | 156 kts | 81° |
| 2026-04-30 12:35 | -12.92505 | -38.40488 | 1424 ft | 156 kts | 81° |
| 2026-04-30 12:35 | -12.92288 | -38.39400 | 1220 ft | 155 kts | 81° |
| 2026-04-30 12:35 | -12.92071 | -38.38319 | 1007 ft | 154 kts | 81° |
| 2026-04-30 12:35 | -12.91854 | -38.37240 | 816 ft | 156 kts | 81° |
| 2026-04-30 12:36 | -12.91636 | -38.36152 | 611 ft | 156 kts | 80° |
| 2026-04-30 12:36 | -12.91416 | -38.35081 | 391 ft | 154 kts | 81° |
| 2026-04-30 12:36 | -12.91207 | -38.34008 | 187 ft | 154 kts | 80° |
| 2026-04-30 12:36 | -12.91000 | -38.32980 | 45 ft | 147 kts | 79° |
| 2026-04-30 12:37 | -12.90838 | -38.32157 | 46 ft | 87 kts | 78° |
| 2026-04-30 12:37 | -12.90769 | -38.31808 | 47 ft | 19 kts | 80° |
| 2026-04-30 12:37 | -12.90810 | -38.31727 | 45 ft | 12 kts | 159° |
| 2026-04-30 12:37 | -12.90892 | -38.31717 | 52 ft | 12 kts | 201° |
| 2026-04-30 12:38 | -12.90923 | -38.31792 | 52 ft | 12 kts | 259° |
| 2026-04-30 12:38 | -12.90939 | -38.31874 | 52 ft | 12 kts | 259° |
| 2026-04-30 12:38 | -12.90957 | -38.31969 | 52 ft | 15 kts | 257° |
| 2026-04-30 12:38 | -12.90981 | -38.32078 | 51 ft | 17 kts | 257° |
| 2026-04-30 12:39 | -12.91005 | -38.32206 | 49 ft | 19 kts | 259° |
| 2026-04-30 12:39 | -12.91032 | -38.32343 | 49 ft | 20 kts | 258° |
| 2026-04-30 12:39 | -12.91060 | -38.32478 | 48 ft | 19 kts | 258° |
| 2026-04-30 12:39 | -12.91087 | -38.32607 | 49 ft | 18 kts | 258° |
| 2026-04-30 12:40 | -12.91113 | -38.32732 | 49 ft | 18 kts | 258° |
| 2026-04-30 12:40 | -12.91139 | -38.32853 | 48 ft | 17 kts | 257° |
| 2026-04-30 12:40 | -12.91161 | -38.32970 | 45 ft | 16 kts | 261° |
| 2026-04-30 12:40 | -12.91182 | -38.33083 | 43 ft | 16 kts | 258° |
| 2026-04-30 12:41 | -12.91208 | -38.33170 | 41 ft | 9 kts | 223° |
| 2026-04-30 12:41 | -12.91269 | -38.33185 | 43 ft | 9 kts | 204° |
| 2026-04-30 12:41 | -12.91325 | -38.33216 | 43 ft | 9 kts | 210° |
| 2026-04-30 12:41 | -12.91349 | -38.33229 | 43 ft | 0 kts | 210° |